createdAt,value
2019-02-14T00:00:32.806Z,86.81
2019-02-14T00:01:32.803Z,86.60
2019-02-14T00:02:32.805Z,86.50
2019-02-14T00:03:32.817Z,86.67
2019-02-14T00:04:32.771Z,86.71
2019-02-14T00:05:32.767Z,86.91
2019-02-14T00:06:32.747Z,86.60
2019-02-14T00:07:32.731Z,86.50
2019-02-14T00:08:32.749Z,86.60
2019-02-14T00:09:32.715Z,86.88
2019-02-14T00:10:32.717Z,85.67
2019-02-14T00:11:32.693Z,86.91
2019-02-14T00:12:33.518Z,86.91
2019-02-14T00:13:32.695Z,85.56
2019-02-14T00:14:32.688Z,85.56
2019-02-14T00:15:32.679Z,86.29
2019-02-14T00:16:32.659Z,86.40
2019-02-14T00:17:32.621Z,86.40
2019-02-14T00:18:32.635Z,87.02
2019-02-14T00:19:32.615Z,85.98
2019-02-14T00:20:32.594Z,85.56
2019-02-14T00:21:32.665Z,86.96
2019-02-14T00:22:32.607Z,86.60
2019-02-14T00:23:32.587Z,86.40
2019-02-14T00:24:32.557Z,86.08
2019-02-14T00:25:32.538Z,86.85
2019-02-14T00:26:32.543Z,86.02
2019-02-14T00:27:32.530Z,86.96
2019-02-14T00:28:32.527Z,85.81
2019-02-14T00:29:32.502Z,85.71
2019-02-14T00:30:32.519Z,86.65
2019-02-14T00:31:32.502Z,86.27
2019-02-14T00:32:32.462Z,86.37
2019-02-14T00:33:32.480Z,86.89
2019-02-14T00:34:32.448Z,86.79
2019-02-14T00:35:32.441Z,87.10
2019-02-14T00:36:32.446Z,87.30
2019-02-14T00:37:32.459Z,87.52
2019-02-14T00:38:32.405Z,87.52
2019-02-14T00:39:32.393Z,87.30
2019-02-14T00:40:32.394Z,86.99
2019-02-14T00:41:32.387Z,87.55
2019-02-14T00:42:32.388Z,87.66
2019-02-14T00:43:32.416Z,86.99
2019-02-14T00:44:32.349Z,87.24
2019-02-14T00:45:32.341Z,87.45
2019-02-14T00:46:32.349Z,87.52
2019-02-14T00:47:32.313Z,87.66
2019-02-14T00:48:32.315Z,87.45
2019-02-14T00:49:32.332Z,87.52
2019-02-14T00:50:32.280Z,87.66
2019-02-14T00:51:32.274Z,87.45
2019-02-14T00:52:32.344Z,87.35
2019-02-14T00:53:32.263Z,87.35
2019-02-14T00:54:32.289Z,87.24
2019-02-14T00:55:32.224Z,87.35
2019-02-14T00:56:32.266Z,87.35
2019-02-14T00:57:32.263Z,87.66
2019-02-14T00:58:32.221Z,86.99
2019-02-14T00:59:32.188Z,87.45
2019-02-14T01:00:32.176Z,87.30
2019-02-14T01:01:32.190Z,87.45
2019-02-14T01:02:32.201Z,87.35
2019-02-14T01:03:32.221Z,86.93
2019-02-14T01:04:32.133Z,87.10
2019-02-14T01:05:33.818Z,86.89
2019-02-14T01:06:32.127Z,86.68
2019-02-14T01:07:32.155Z,86.79
2019-02-14T01:08:32.146Z,86.68
2019-02-14T01:09:32.121Z,86.58
2019-02-14T01:10:32.101Z,86.68
2019-02-14T01:11:32.054Z,86.68
2019-02-14T01:12:32.220Z,86.79
2019-02-14T01:13:32.089Z,86.68
2019-02-14T01:14:32.026Z,86.58
2019-02-14T01:15:32.054Z,86.79
2019-02-14T01:16:31.997Z,86.68
2019-02-14T01:17:32.004Z,86.79
2019-02-14T01:18:32.032Z,86.68
2019-02-14T01:19:32.044Z,87.10
2019-02-14T01:20:31.980Z,85.74
2019-02-14T01:21:31.956Z,87.10
2019-02-14T01:22:31.936Z,87.30
2019-02-14T01:23:31.945Z,86.16
2019-02-14T01:24:31.934Z,85.85
2019-02-14T01:25:31.912Z,85.60
2019-02-14T01:26:31.906Z,85.81
2019-02-14T01:27:31.883Z,86.06
2019-02-14T01:28:31.896Z,85.74
2019-02-14T01:29:31.906Z,86.02
2019-02-14T01:30:31.862Z,85.85
2019-02-14T01:31:31.864Z,86.16
2019-02-14T01:32:31.853Z,85.81
2019-02-14T01:33:31.874Z,85.85
2019-02-14T01:34:31.810Z,86.06
2019-02-14T01:35:31.799Z,86.47
2019-02-14T01:36:31.817Z,85.96
2019-02-14T01:37:31.788Z,86.12
2019-02-14T01:38:31.773Z,86.16
2019-02-14T01:39:31.799Z,86.06
2019-02-14T01:40:31.790Z,85.53
2019-02-14T01:41:31.749Z,85.85
2019-02-14T01:42:31.768Z,85.74
2019-02-14T01:43:31.708Z,85.85
2019-02-14T01:44:31.698Z,86.10
2019-02-14T01:45:31.708Z,86.27
2019-02-14T01:46:31.704Z,85.74
2019-02-14T01:47:31.708Z,86.06
2019-02-14T01:48:31.692Z,86.16
2019-02-14T01:49:31.723Z,86.27
2019-02-14T01:50:31.649Z,85.85
2019-02-14T01:51:31.632Z,85.96
2019-02-14T01:52:31.665Z,86.27
2019-02-14T01:53:31.631Z,86.06
2019-02-14T01:54:31.654Z,86.06
2019-02-14T01:55:32.616Z,85.74
2019-02-14T01:56:31.572Z,85.85
2019-02-14T01:57:31.569Z,86.06
2019-02-14T01:58:31.569Z,86.06
2019-02-14T01:59:31.580Z,85.78
2019-02-14T02:00:31.572Z,85.78
2019-02-14T02:01:31.523Z,85.99
2019-02-14T02:02:31.512Z,85.96
2019-02-14T02:03:31.509Z,86.20
2019-02-14T02:04:31.545Z,86.20
2019-02-14T02:05:31.470Z,86.20
2019-02-14T02:06:31.479Z,85.89
2019-02-14T02:07:31.451Z,86.20
2019-02-14T02:08:31.440Z,85.89
2019-02-14T02:09:31.436Z,86.30
2019-02-14T02:10:31.424Z,86.30
2019-02-14T02:11:31.419Z,86.20
2019-02-14T02:12:31.460Z,85.72
2019-02-14T02:13:31.417Z,85.78
2019-02-14T02:14:31.398Z,85.78
2019-02-14T02:15:31.384Z,87.07
2019-02-14T02:16:31.387Z,87.07
2019-02-14T02:17:31.394Z,86.76
2019-02-14T02:18:31.379Z,86.87
2019-02-14T02:19:31.332Z,86.55
2019-02-14T02:20:33.320Z,86.55
2019-02-14T02:21:31.327Z,86.66
2019-02-14T02:22:31.303Z,86.55
2019-02-14T02:23:31.330Z,86.66
2019-02-14T02:24:31.292Z,86.69
2019-02-14T02:25:31.290Z,86.66
2019-02-14T02:26:31.290Z,86.76
2019-02-14T02:27:31.283Z,86.80
2019-02-14T02:28:31.227Z,86.80
2019-02-14T02:29:31.231Z,86.49
2019-02-14T02:30:31.214Z,87.53
2019-02-14T02:31:31.237Z,87.32
2019-02-14T02:32:31.206Z,87.37
2019-02-14T02:33:31.189Z,87.37
2019-02-14T02:34:31.220Z,87.78
2019-02-14T02:35:31.155Z,87.51
2019-02-14T02:36:31.181Z,87.78
2019-02-14T02:37:31.151Z,87.78
2019-02-14T02:38:31.124Z,88.03
2019-02-14T02:39:31.134Z,88.13
2019-02-14T02:40:31.095Z,88.76
2019-02-14T02:41:31.131Z,89.28
2019-02-14T02:42:31.080Z,89.18
2019-02-14T02:43:31.116Z,89.28
2019-02-14T02:44:31.087Z,89.39
2019-02-14T02:45:31.043Z,89.28
2019-02-14T02:46:31.054Z,89.70
2019-02-14T02:47:31.033Z,89.70
2019-02-14T02:48:31.027Z,89.59
2019-02-14T02:49:31.045Z,89.39
2019-02-14T02:50:31.028Z,89.28
2019-02-14T02:51:31.004Z,89.18
2019-02-14T02:52:31.025Z,89.28
2019-02-14T02:53:30.988Z,89.39
2019-02-14T02:54:30.960Z,89.39
2019-02-14T02:55:30.968Z,89.53
2019-02-14T02:56:30.944Z,89.43
2019-02-14T02:57:30.958Z,89.70
2019-02-14T02:58:30.908Z,89.22
2019-02-14T02:59:30.913Z,88.90
2019-02-14T03:00:30.895Z,89.01
2019-02-14T03:01:30.933Z,89.11
2019-02-14T03:02:30.863Z,89.53
2019-02-14T03:03:30.922Z,89.43
2019-02-14T03:04:30.883Z,89.64
2019-02-14T03:05:30.830Z,89.64
2019-02-14T03:06:30.830Z,89.32
2019-02-14T03:07:30.830Z,89.74
2019-02-14T03:08:30.815Z,89.32
2019-02-14T03:09:30.846Z,89.43
2019-02-14T03:10:30.809Z,89.64
2019-02-14T03:11:30.769Z,89.32
2019-02-14T03:12:30.794Z,89.64
2019-02-14T03:13:30.824Z,89.68
2019-02-14T03:14:30.751Z,89.99
2019-02-14T03:15:30.754Z,89.78
2019-02-14T03:16:30.734Z,89.47
2019-02-14T03:17:30.747Z,89.68
2019-02-14T03:18:30.722Z,89.68
2019-02-14T03:19:30.753Z,89.47
2019-02-14T03:20:30.706Z,89.89
2019-02-14T03:21:30.682Z,90.20
2019-02-14T03:22:30.693Z,91.25
2019-02-14T03:23:30.730Z,91.25
2019-02-14T03:24:30.638Z,90.41
2019-02-14T03:25:30.646Z,91.25
2019-02-14T03:26:30.662Z,91.14
2019-02-14T03:27:30.671Z,91.14
2019-02-14T03:28:30.669Z,90.41
2019-02-14T03:29:30.617Z,91.56
2019-02-14T03:30:30.587Z,90.62
2019-02-14T03:31:30.581Z,89.78
2019-02-14T03:32:30.566Z,90.31
2019-02-14T03:33:30.630Z,90.52
2019-02-14T03:34:30.551Z,90.72
2019-02-14T03:35:30.522Z,91.25
2019-02-14T03:36:30.574Z,90.41
2019-02-14T03:37:30.508Z,91.35
2019-02-14T03:38:30.491Z,91.25
2019-02-14T03:39:30.489Z,90.72
2019-02-14T03:40:30.482Z,90.97
2019-02-14T03:41:30.481Z,91.25
2019-02-14T03:42:30.463Z,91.25
2019-02-14T03:43:30.482Z,91.25
2019-02-14T03:44:30.418Z,91.14
2019-02-14T03:45:30.434Z,90.52
2019-02-14T03:46:30.417Z,90.62
2019-02-14T03:47:30.411Z,90.68
2019-02-14T03:48:30.393Z,90.37
2019-02-14T03:49:30.402Z,90.06
2019-02-14T03:50:30.386Z,90.47
2019-02-14T03:51:30.364Z,89.84
2019-02-14T03:52:30.399Z,89.95
2019-02-14T03:53:30.346Z,89.95
2019-02-14T03:54:30.315Z,90.06
2019-02-14T03:55:30.360Z,89.95
2019-02-14T03:56:30.398Z,90.09
2019-02-14T03:57:30.309Z,90.09
2019-02-14T03:58:30.320Z,89.68
2019-02-14T03:59:30.285Z,89.68
2019-02-14T04:00:30.330Z,89.64
2019-02-14T04:01:30.278Z,89.89
2019-02-14T04:02:30.284Z,89.68
2019-02-14T04:03:30.256Z,89.68
2019-02-14T04:04:30.219Z,89.99
2019-02-14T04:05:30.212Z,90.20
2019-02-14T04:06:30.232Z,90.16
2019-02-14T04:07:30.218Z,89.95
2019-02-14T04:08:30.194Z,89.84
2019-02-14T04:09:30.189Z,89.95
2019-02-14T04:10:30.162Z,90.16
2019-02-14T04:11:30.153Z,89.84
2019-02-14T04:12:30.137Z,89.74
2019-02-14T04:13:30.170Z,89.95
2019-02-14T04:14:30.112Z,89.32
2019-02-14T04:15:30.130Z,89.74
2019-02-14T04:16:30.098Z,89.95
2019-02-14T04:17:30.090Z,89.58
2019-02-14T04:18:30.114Z,89.15
2019-02-14T04:19:30.063Z,89.68
2019-02-14T04:20:30.098Z,89.58
2019-02-14T04:21:30.052Z,89.47
2019-02-14T04:22:30.082Z,89.68
2019-02-14T04:23:30.038Z,89.68
2019-02-14T04:24:30.029Z,89.99
2019-02-14T04:25:29.998Z,89.99
2019-02-14T04:26:29.999Z,89.99
2019-02-14T04:27:29.991Z,89.83
2019-02-14T04:28:30.016Z,89.61
2019-02-14T04:29:29.976Z,89.47
2019-02-14T04:30:29.946Z,89.83
2019-02-14T04:31:29.972Z,89.83
2019-02-14T04:32:29.926Z,89.61
2019-02-14T04:33:29.945Z,89.72
2019-02-14T04:34:29.930Z,90.70
2019-02-14T04:35:29.916Z,91.22
2019-02-14T04:36:35.904Z,91.22
2019-02-14T04:37:30.863Z,91.08
2019-02-14T04:38:29.893Z,91.28
2019-02-14T04:39:29.867Z,91.50
2019-02-14T04:40:33.610Z,90.97
2019-02-14T04:41:29.829Z,91.50
2019-02-14T04:42:29.820Z,90.87
2019-02-14T04:43:29.804Z,91.08
2019-02-14T04:44:29.813Z,91.08
2019-02-14T04:45:29.813Z,90.97
2019-02-14T04:46:29.844Z,91.18
2019-02-14T04:47:29.768Z,91.18
2019-02-14T04:48:29.763Z,90.77
2019-02-14T04:49:29.803Z,91.08
2019-02-14T04:50:29.741Z,91.28
2019-02-14T04:51:29.724Z,91.35
2019-02-14T04:52:29.702Z,91.03
2019-02-14T04:53:29.733Z,90.41
2019-02-14T04:54:29.735Z,90.62
2019-02-14T04:55:29.721Z,90.56
2019-02-14T04:56:29.697Z,90.77
2019-02-14T04:57:29.660Z,90.66
2019-02-14T04:58:29.654Z,90.77
2019-02-14T04:59:29.731Z,90.34
2019-02-14T05:00:29.628Z,90.66
2019-02-14T05:01:29.616Z,90.77
2019-02-14T05:02:29.656Z,90.56
2019-02-14T05:03:29.627Z,90.70
2019-02-14T05:04:29.604Z,90.81
2019-02-14T05:05:29.575Z,90.81
2019-02-14T05:06:29.571Z,90.81
2019-02-14T05:07:29.603Z,91.02
2019-02-14T05:08:29.548Z,91.37
2019-02-14T05:09:29.535Z,91.58
2019-02-14T05:10:29.519Z,91.47
2019-02-14T05:11:29.525Z,90.33
2019-02-14T05:12:29.501Z,91.09
2019-02-14T05:13:29.552Z,91.20
2019-02-14T05:14:29.479Z,91.09
2019-02-14T05:15:29.478Z,91.41
2019-02-14T05:16:29.460Z,91.09
2019-02-14T05:17:29.465Z,91.41
2019-02-14T05:18:29.458Z,91.41
2019-02-14T05:19:29.418Z,91.52
2019-02-14T05:20:29.511Z,92.57
2019-02-14T05:21:29.403Z,92.88
2019-02-14T05:22:29.459Z,93.08
2019-02-14T05:23:29.453Z,93.46
2019-02-14T05:24:29.359Z,92.83
2019-02-14T05:25:29.364Z,93.26
2019-02-14T05:26:29.348Z,92.58
2019-02-14T05:27:29.335Z,93.11
2019-02-14T05:28:29.355Z,92.16
2019-02-14T05:29:29.332Z,92.48
2019-02-14T05:30:29.328Z,92.54
2019-02-14T05:31:29.331Z,92.23
2019-02-14T05:32:29.284Z,92.13
2019-02-14T05:33:29.269Z,92.13
2019-02-14T05:34:29.273Z,91.39
2019-02-14T05:35:29.248Z,90.97
2019-02-14T05:36:29.288Z,90.93
2019-02-14T05:37:29.274Z,90.83
2019-02-14T05:38:29.267Z,90.97
2019-02-14T05:39:29.250Z,91.08
2019-02-14T05:40:29.259Z,90.45
2019-02-14T05:41:29.233Z,90.56
2019-02-14T05:42:29.241Z,90.56
2019-02-14T05:43:29.225Z,90.77
2019-02-14T05:44:29.153Z,90.77
2019-02-14T05:45:29.154Z,91.08
2019-02-14T05:46:29.186Z,91.22
2019-02-14T05:47:29.130Z,91.33
2019-02-14T05:48:29.119Z,90.97
2019-02-14T05:49:29.158Z,91.02
2019-02-14T05:50:29.101Z,91.54
2019-02-14T05:51:29.128Z,91.12
2019-02-14T05:52:29.124Z,91.33
2019-02-14T05:53:29.065Z,91.33
2019-02-14T05:54:29.121Z,91.33
2019-02-14T05:55:29.039Z,90.87
2019-02-14T05:56:29.032Z,91.12
2019-02-14T05:57:29.077Z,91.22
2019-02-14T05:58:29.083Z,91.02
2019-02-14T05:59:29.005Z,91.02
2019-02-14T06:00:29.033Z,91.43
2019-02-14T06:01:28.997Z,90.59
2019-02-14T06:02:28.981Z,90.43
2019-02-14T06:03:28.963Z,90.74
2019-02-14T06:04:29.001Z,90.74
2019-02-14T06:05:28.926Z,90.78
2019-02-14T06:06:28.959Z,91.09
2019-02-14T06:07:28.914Z,91.20
2019-02-14T06:08:28.925Z,91.09
2019-02-14T06:09:28.921Z,91.52
2019-02-14T06:10:28.880Z,91.31
2019-02-14T06:11:28.914Z,91.94
2019-02-14T06:12:28.888Z,91.41
2019-02-14T06:13:28.892Z,91.66
2019-02-14T06:14:28.841Z,91.56
2019-02-14T06:15:28.910Z,91.66
2019-02-14T06:16:28.812Z,92.29
2019-02-14T06:17:28.819Z,91.98
2019-02-14T06:18:28.885Z,92.19
2019-02-14T06:19:28.803Z,92.08
2019-02-14T06:20:28.803Z,92.13
2019-02-14T06:21:28.766Z,92.33
2019-02-14T06:22:28.767Z,93.17
2019-02-14T06:23:30.137Z,92.54
2019-02-14T06:24:28.749Z,92.76
2019-02-14T06:25:28.774Z,92.54
2019-02-14T06:26:28.709Z,92.76
2019-02-14T06:27:28.709Z,92.76
2019-02-14T06:28:28.715Z,92.86
2019-02-14T06:29:28.705Z,92.76
2019-02-14T06:30:28.700Z,93.07
2019-02-14T06:31:28.659Z,92.54
2019-02-14T06:32:28.675Z,92.33
2019-02-14T06:33:28.640Z,92.69
2019-02-14T06:34:28.650Z,93.01
2019-02-14T06:35:28.655Z,94.01
2019-02-14T06:36:28.707Z,93.84
2019-02-14T06:37:28.611Z,93.70
2019-02-14T06:38:28.577Z,94.06
2019-02-14T06:39:28.574Z,93.95
2019-02-14T06:40:28.582Z,94.01
2019-02-14T06:41:28.551Z,93.80
2019-02-14T06:42:28.543Z,93.32
2019-02-14T06:43:28.540Z,93.63
2019-02-14T06:44:28.521Z,93.84
2019-02-14T06:45:28.522Z,93.53
2019-02-14T06:46:28.584Z,93.91
2019-02-14T06:47:28.531Z,94.32
2019-02-14T06:48:28.516Z,94.74
2019-02-14T06:49:28.511Z,94.85
2019-02-14T06:50:34.651Z,94.18
2019-02-14T06:51:29.466Z,94.49
2019-02-14T06:52:28.427Z,94.49
2019-02-14T06:53:28.470Z,94.18
2019-02-14T06:54:28.457Z,93.97
2019-02-14T06:55:28.408Z,94.24
2019-02-14T06:56:28.392Z,94.24
2019-02-14T06:57:28.413Z,94.03
2019-02-14T06:58:28.370Z,93.71
2019-02-14T06:59:28.398Z,93.61
2019-02-14T07:00:28.379Z,93.51
2019-02-14T07:01:28.354Z,93.30
2019-02-14T07:02:28.332Z,93.19
2019-02-14T07:03:28.321Z,92.67
2019-02-14T07:04:28.339Z,92.88
2019-02-14T07:05:28.309Z,92.35
2019-02-14T07:06:28.311Z,92.67
2019-02-14T07:07:28.294Z,92.83
2019-02-14T07:08:28.268Z,93.19
2019-02-14T07:09:28.264Z,92.42
2019-02-14T07:10:28.273Z,92.52
2019-02-14T07:11:28.322Z,92.42
2019-02-14T07:12:28.231Z,91.75
2019-02-14T07:13:28.216Z,92.06
2019-02-14T07:14:28.207Z,91.85
2019-02-14T07:15:28.198Z,92.02
2019-02-14T07:16:28.235Z,91.28
2019-02-14T07:17:28.182Z,90.97
2019-02-14T07:18:28.218Z,91.28
2019-02-14T07:19:28.154Z,91.08
2019-02-14T07:20:28.135Z,90.45
2019-02-14T07:21:28.208Z,90.56
2019-02-14T07:22:28.160Z,90.14
2019-02-14T07:23:28.150Z,90.03
2019-02-14T07:24:28.099Z,90.14
2019-02-14T07:25:28.171Z,90.45
2019-02-14T07:26:28.078Z,90.09
2019-02-14T07:27:28.102Z,90.20
2019-02-14T07:28:28.067Z,89.47
2019-02-14T07:29:28.040Z,89.68
2019-02-14T07:30:28.055Z,89.64
2019-02-14T07:31:28.031Z,89.53
2019-02-14T07:32:28.025Z,89.32
2019-02-14T07:33:28.018Z,88.80
2019-02-14T07:34:28.004Z,88.70
2019-02-14T07:35:28.022Z,89.64
2019-02-14T07:36:28.007Z,89.11
2019-02-14T07:37:27.975Z,89.32
2019-02-14T07:38:27.950Z,88.30
2019-02-14T07:39:27.966Z,86.97
2019-02-14T07:40:29.696Z,85.14
2019-02-14T07:41:27.921Z,80.46
2019-02-14T07:42:27.909Z,78.78
2019-02-14T07:43:27.893Z,77.26
2019-02-14T07:44:27.884Z,74.84
2019-02-14T07:45:27.899Z,74.32
2019-02-14T07:46:27.865Z,73.05
2019-02-14T07:47:27.850Z,70.98
2019-02-14T07:48:27.857Z,68.71
2019-02-14T07:49:27.822Z,69.71
2019-02-14T07:50:27.829Z,69.99
2019-02-14T07:51:27.807Z,68.85
2019-02-14T07:52:27.800Z,68.96
2019-02-14T07:53:27.784Z,67.69
2019-02-14T07:54:27.788Z,65.08
2019-02-14T07:55:27.777Z,66.39
2019-02-14T07:56:27.765Z,65.80
2019-02-14T07:57:27.765Z,66.35
2019-02-14T07:58:27.757Z,67.14
2019-02-14T07:59:27.721Z,67.58
2019-02-14T08:00:27.719Z,68.44
2019-02-14T08:01:27.714Z,68.99
2019-02-14T08:02:27.693Z,70.26
2019-02-14T08:03:27.682Z,70.06
2019-02-14T08:04:27.661Z,70.47
2019-02-14T08:05:27.672Z,70.43
2019-02-14T08:06:27.645Z,68.96
2019-02-14T08:07:35.495Z,68.10
2019-02-14T08:08:28.618Z,68.38
2019-02-14T08:09:27.606Z,68.27
2019-02-14T08:10:27.592Z,67.90
2019-02-14T08:11:27.600Z,68.58
2019-02-14T08:12:27.576Z,70.81
2019-02-14T08:13:27.562Z,72.56
2019-02-14T08:14:27.567Z,73.43
2019-02-14T08:15:27.542Z,75.05
2019-02-14T08:16:27.542Z,75.92
2019-02-14T08:17:27.523Z,76.92
2019-02-14T08:18:27.531Z,78.75
2019-02-14T08:19:27.505Z,78.92
2019-02-14T08:20:27.500Z,75.98
2019-02-14T08:21:27.475Z,72.06
2019-02-14T08:22:27.475Z,67.73
2019-02-14T08:23:27.465Z,66.44
2019-02-14T08:24:27.453Z,63.85
2019-02-14T08:25:27.439Z,60.61
2019-02-14T08:26:27.432Z,58.72
2019-02-14T08:27:27.407Z,56.69
2019-02-14T08:28:27.412Z,56.84
2019-02-14T08:29:27.393Z,55.33
2019-02-14T08:30:27.383Z,55.41
2019-02-14T08:31:27.384Z,54.11
2019-02-14T08:32:27.378Z,54.59
2019-02-14T08:33:27.355Z,57.07
2019-02-14T08:34:27.330Z,60.21
2019-02-14T08:35:27.319Z,63.59
2019-02-14T08:36:27.312Z,65.67
2019-02-14T08:37:27.310Z,67.21
2019-02-14T08:38:27.308Z,70.16
2019-02-14T08:39:27.283Z,70.29
2019-02-14T08:40:27.270Z,71.33
2019-02-14T08:41:27.257Z,70.75
2019-02-14T08:42:27.254Z,70.68
2019-02-14T08:43:27.268Z,66.63
2019-02-14T08:44:27.230Z,65.77
2019-02-14T08:45:27.223Z,65.70
2019-02-14T08:46:27.214Z,66.45
2019-02-14T08:47:27.193Z,68.75
2019-02-14T08:48:27.184Z,69.95
2019-02-14T08:49:27.183Z,69.98
2019-02-14T08:50:27.169Z,68.64
2019-02-14T08:51:27.180Z,68.77
2019-02-14T08:52:27.141Z,70.84
2019-02-14T08:53:27.133Z,70.77
2019-02-14T08:54:27.126Z,71.12
2019-02-14T08:55:27.104Z,72.98
2019-02-14T08:56:27.098Z,71.91
2019-02-14T08:57:27.085Z,70.61
2019-02-14T08:58:27.077Z,68.78
2019-02-14T08:59:27.075Z,67.85
2019-02-14T09:00:27.051Z,67.10
2019-02-14T09:01:27.039Z,66.24
2019-02-14T09:02:27.042Z,66.55
2019-02-14T09:03:27.020Z,64.74
2019-02-14T09:04:27.012Z,62.70
2019-02-14T09:05:27.007Z,60.89
2019-02-14T09:06:26.981Z,61.55
2019-02-14T09:07:26.982Z,60.49
2019-02-14T09:08:26.969Z,60.77
2019-02-14T09:09:26.956Z,57.13
2019-02-14T09:10:26.966Z,56.59
2019-02-14T09:11:26.975Z,57.92
2019-02-14T09:12:26.923Z,57.07
2019-02-14T09:13:26.907Z,55.41
2019-02-14T09:14:26.894Z,55.92
2019-02-14T09:15:26.901Z,55.49
2019-02-14T09:16:26.886Z,55.18
2019-02-14T09:17:26.863Z,53.85
2019-02-14T09:18:26.852Z,54.25
2019-02-14T09:19:26.839Z,54.67
2019-02-14T09:20:26.839Z,55.58
2019-02-14T09:21:26.822Z,55.36
2019-02-14T09:22:26.813Z,54.64
2019-02-14T09:23:26.801Z,52.39
2019-02-14T09:24:26.789Z,56.18
2019-02-14T09:25:26.790Z,52.80
2019-02-14T09:26:26.759Z,53.00
2019-02-14T09:27:26.749Z,52.49
2019-02-14T09:28:26.750Z,53.52
2019-02-14T09:29:26.731Z,52.80
2019-02-14T09:30:26.742Z,54.13
2019-02-14T09:31:26.726Z,55.49
2019-02-14T09:32:26.705Z,56.05
2019-02-14T09:33:26.693Z,57.61
2019-02-14T09:34:26.690Z,59.13
2019-02-14T09:35:27.195Z,60.03
2019-02-14T09:36:26.656Z,63.46
2019-02-14T09:37:26.664Z,64.03
2019-02-14T09:38:26.631Z,65.71
2019-02-14T09:39:26.622Z,66.19
2019-02-14T09:40:26.644Z,65.58
2019-02-14T09:41:26.600Z,65.58
2019-02-14T09:42:26.598Z,64.58
2019-02-14T09:43:29.848Z,66.12
2019-02-14T09:44:26.569Z,66.43
2019-02-14T09:45:26.570Z,66.67
2019-02-14T09:46:26.564Z,67.39
2019-02-14T09:47:26.539Z,68.35
2019-02-14T09:48:26.526Z,67.63
2019-02-14T09:49:26.526Z,68.79
2019-02-14T09:50:26.506Z,68.14
2019-02-14T09:51:26.500Z,69.04
2019-02-14T09:52:26.486Z,67.93
2019-02-14T09:53:26.492Z,68.32
2019-02-14T09:54:26.475Z,68.01
2019-02-14T09:55:26.448Z,67.77
2019-02-14T09:56:26.482Z,67.15
2019-02-14T09:57:26.437Z,67.94
2019-02-14T09:58:26.469Z,67.63
2019-02-14T09:59:26.397Z,67.81
2019-02-14T10:00:26.414Z,67.47
2019-02-14T10:01:26.384Z,64.07
2019-02-14T10:02:26.384Z,65.08
2019-02-14T10:03:26.352Z,63.81
2019-02-14T10:04:26.351Z,62.88
2019-02-14T10:05:26.339Z,62.88
2019-02-14T10:06:26.347Z,61.72
2019-02-14T10:07:26.329Z,59.03
2019-02-14T10:08:26.324Z,58.85
2019-02-14T10:09:26.294Z,59.75
2019-02-14T10:10:26.315Z,57.39
2019-02-14T10:11:26.273Z,57.39
2019-02-14T10:12:26.278Z,60.85
2019-02-14T10:13:26.253Z,56.74
2019-02-14T10:14:26.248Z,56.02
2019-02-14T10:15:26.235Z,56.85
2019-02-14T10:16:26.234Z,54.36
2019-02-14T10:17:26.207Z,55.38
2019-02-14T10:18:26.196Z,53.36
2019-02-14T10:19:26.188Z,56.54
2019-02-14T10:20:26.203Z,55.62
2019-02-14T10:21:26.214Z,54.18
2019-02-14T10:22:26.230Z,53.56
2019-02-14T10:23:26.173Z,54.49
2019-02-14T10:24:26.129Z,53.38
2019-02-14T10:25:26.139Z,54.13
2019-02-14T10:26:26.113Z,54.74
2019-02-14T10:27:26.102Z,55.08
2019-02-14T10:28:26.100Z,54.46
2019-02-14T10:29:26.099Z,57.44
2019-02-14T10:30:26.078Z,56.31
2019-02-14T10:31:26.068Z,55.59
2019-02-14T10:32:26.130Z,58.85
2019-02-14T10:33:26.090Z,54.53
2019-02-14T10:34:26.034Z,54.23
2019-02-14T10:35:26.043Z,53.28
2019-02-14T10:36:25.997Z,54.61
2019-02-14T10:37:26.066Z,54.51
2019-02-14T10:38:26.012Z,56.95
2019-02-14T10:39:25.969Z,54.18
2019-02-14T10:40:25.955Z,54.79
2019-02-14T10:41:25.952Z,53.23
2019-02-14T10:42:25.935Z,55.90
2019-02-14T10:43:25.937Z,56.71
2019-02-14T10:44:25.909Z,52.41
2019-02-14T10:45:25.898Z,52.31
2019-02-14T10:46:25.896Z,53.64
2019-02-14T10:47:25.878Z,52.92
2019-02-14T10:48:25.881Z,53.12
2019-02-14T10:49:25.886Z,54.97
2019-02-14T10:50:25.895Z,54.77
2019-02-14T10:51:25.884Z,53.85
2019-02-14T10:52:25.871Z,52.69
2019-02-14T10:53:25.813Z,54.53
2019-02-14T10:54:25.817Z,56.69
2019-02-14T10:55:25.803Z,52.28
2019-02-14T10:56:25.776Z,53.92
2019-02-14T10:57:25.794Z,54.31
2019-02-14T10:58:25.757Z,53.72
2019-02-14T10:59:25.752Z,52.87
2019-02-14T11:00:25.743Z,51.56
2019-02-14T11:01:25.718Z,53.41
2019-02-14T11:02:25.708Z,54.74
2019-02-14T11:03:25.696Z,54.85
2019-02-14T11:04:25.700Z,53.59
2019-02-14T11:05:25.713Z,54.64
2019-02-14T11:06:25.675Z,52.59
2019-02-14T11:07:25.654Z,51.23
2019-02-14T11:08:31.693Z,52.69
2019-02-14T11:09:26.639Z,51.26
2019-02-14T11:10:25.646Z,51.98
2019-02-14T11:11:25.616Z,52.59
2019-02-14T11:12:25.602Z,53.00
2019-02-14T11:13:25.586Z,51.77
2019-02-14T11:14:29.223Z,50.95
2019-02-14T11:15:25.582Z,51.07
2019-02-14T11:16:25.560Z,52.31
2019-02-14T11:17:25.551Z,55.18
2019-02-14T11:18:25.540Z,56.82
2019-02-14T11:19:25.530Z,52.31
2019-02-14T11:20:25.537Z,52.31
2019-02-14T11:21:25.502Z,52.41
2019-02-14T11:22:25.498Z,51.48
2019-02-14T11:23:25.485Z,51.59
2019-02-14T11:24:25.472Z,52.61
2019-02-14T11:25:25.461Z,51.20
2019-02-14T11:26:25.457Z,52.54
2019-02-14T11:27:25.435Z,52.44
2019-02-14T11:28:25.426Z,52.61
2019-02-14T11:29:25.428Z,52.33
2019-02-14T11:30:25.415Z,51.20
2019-02-14T11:31:25.410Z,51.95
2019-02-14T11:32:25.402Z,52.33
2019-02-14T11:33:25.383Z,52.10
2019-02-14T11:34:25.358Z,52.31
2019-02-14T11:35:25.353Z,52.72
2019-02-14T11:36:25.371Z,53.85
2019-02-14T11:37:25.881Z,53.44
2019-02-14T11:38:25.326Z,51.18
2019-02-14T11:39:25.311Z,50.44
2019-02-14T11:40:25.305Z,49.82
2019-02-14T11:41:25.303Z,50.85
2019-02-14T11:42:25.298Z,49.72
2019-02-14T11:43:25.266Z,51.85
2019-02-14T11:44:25.263Z,51.44
2019-02-14T11:45:25.240Z,51.05
2019-02-14T11:46:25.240Z,49.69
2019-02-14T11:47:25.227Z,49.69
2019-02-14T11:48:25.209Z,49.59
2019-02-14T11:49:25.198Z,51.54
2019-02-14T11:50:25.207Z,52.56
2019-02-14T11:51:25.192Z,53.18
2019-02-14T11:52:25.176Z,50.72
2019-02-14T11:53:25.163Z,52.67
2019-02-14T11:54:25.137Z,52.56
2019-02-14T11:55:25.135Z,50.42
2019-02-14T11:56:25.157Z,51.44
2019-02-14T11:57:25.144Z,54.21
2019-02-14T11:58:25.093Z,51.75
2019-02-14T11:59:25.093Z,51.82
2019-02-14T12:00:25.074Z,53.56
2019-02-14T12:01:25.108Z,49.98
2019-02-14T12:02:25.080Z,49.67
2019-02-14T12:03:25.054Z,52.03
2019-02-14T12:04:25.108Z,48.96
2019-02-14T12:05:25.043Z,50.06
2019-02-14T12:06:25.014Z,50.59
2019-02-14T12:07:25.003Z,47.42
2019-02-14T12:08:24.987Z,49.65
2019-02-14T12:09:24.981Z,50.47
2019-02-14T12:10:25.002Z,48.83
2019-02-14T12:11:24.953Z,49.22
2019-02-14T12:12:25.783Z,49.42
2019-02-14T12:13:24.941Z,47.78
2019-02-14T12:14:24.994Z,47.78
2019-02-14T12:15:24.926Z,49.14
2019-02-14T12:16:24.930Z,46.86
2019-02-14T12:17:24.892Z,46.89
2019-02-14T12:18:24.883Z,48.52
2019-02-14T12:19:24.878Z,50.34
2019-02-14T12:20:24.856Z,51.16
2019-02-14T12:21:24.875Z,50.75
2019-02-14T12:22:24.867Z,52.80
2019-02-14T12:23:24.851Z,48.91
2019-02-14T12:24:24.845Z,49.63
2019-02-14T12:25:24.801Z,51.67
2019-02-14T12:26:24.810Z,49.01
2019-02-14T12:27:24.785Z,48.60
2019-02-14T12:28:24.776Z,47.48
2019-02-14T12:29:24.783Z,47.17
2019-02-14T12:30:24.775Z,49.11
2019-02-14T12:31:24.740Z,49.04
2019-02-14T12:32:24.730Z,47.30
2019-02-14T12:33:24.727Z,48.09
2019-02-14T12:34:24.710Z,47.50
2019-02-14T12:35:24.735Z,47.89
2019-02-14T12:36:24.720Z,47.07
2019-02-14T12:37:24.678Z,46.86
2019-02-14T12:38:24.666Z,48.50
2019-02-14T12:39:24.653Z,48.91
2019-02-14T12:40:24.658Z,45.53
2019-02-14T12:41:24.639Z,46.25
2019-02-14T12:42:24.630Z,49.32
2019-02-14T12:43:24.610Z,45.23
2019-02-14T12:44:24.594Z,45.43
2019-02-14T12:45:26.096Z,47.68
2019-02-14T12:46:24.577Z,44.20
2019-02-14T12:47:24.568Z,45.00
2019-02-14T12:48:24.583Z,47.25
2019-02-14T12:49:24.543Z,44.70
2019-02-14T12:50:24.530Z,45.31
2019-02-14T12:51:24.534Z,45.10
2019-02-14T12:52:24.510Z,45.51